sensor_id;sensor_type;location;lat;lon;timestamp;P1;durP1;ratioP1;P2;durP2;ratioP2
25581;SDS011;13462;50.764;4.332;2024-02-15T00:02:14;16.50;;;6.68;;
25581;SDS011;13462;50.764;4.332;2024-02-15T00:04:40;17.58;;;7.18;;
25581;SDS011;13462;50.764;4.332;2024-02-15T00:07:05;22.33;;;7.90;;
25581;SDS011;13462;50.764;4.332;2024-02-15T00:09:31;18.73;;;7.93;;
25581;SDS011;13462;50.764;4.332;2024-02-15T00:11:56;19.63;;;6.43;;
25581;SDS011;13462;50.764;4.332;2024-02-15T00:14:24;13.80;;;6.50;;
25581;SDS011;13462;50.764;4.332;2024-02-15T00:16:50;21.40;;;6.20;;
25581;SDS011;13462;50.764;4.332;2024-02-15T00:19:16;10.23;;;5.97;;
25581;SDS011;13462;50.764;4.332;2024-02-15T00:21:45;14.45;;;6.45;;
25581;SDS011;13462;50.764;4.332;2024-02-15T00:24:11;17.20;;;6.70;;
25581;SDS011;13462;50.764;4.332;2024-02-15T00:26:36;10.32;;;5.68;;
25581;SDS011;13462;50.764;4.332;2024-02-15T00:29:03;13.88;;;5.25;;
25581;SDS011;13462;50.764;4.332;2024-02-15T00:31:29;12.77;;;6.43;;
25581;SDS011;13462;50.764;4.332;2024-02-15T00:33:54;13.77;;;5.25;;
25581;SDS011;13462;50.764;4.332;2024-02-15T00:36:20;14.90;;;5.28;;
25581;SDS011;13462;50.764;4.332;2024-02-15T00:38:46;9.90;;;5.13;;
25581;SDS011;13462;50.764;4.332;2024-02-15T00:41:11;12.48;;;4.45;;
25581;SDS011;13462;50.764;4.332;2024-02-15T00:43:37;14.02;;;5.50;;
25581;SDS011;13462;50.764;4.332;2024-02-15T00:46:03;10.32;;;4.65;;
25581;SDS011;13462;50.764;4.332;2024-02-15T00:48:29;10.50;;;5.22;;
25581;SDS011;13462;50.764;4.332;2024-02-15T00:50:55;15.57;;;4.60;;
25581;SDS011;13462;50.764;4.332;2024-02-15T00:53:21;13.43;;;3.90;;
25581;SDS011;13462;50.764;4.332;2024-02-15T00:55:47;10.85;;;4.10;;
25581;SDS011;13462;50.764;4.332;2024-02-15T00:58:13;17.38;;;5.53;;
25581;SDS011;13462;50.764;4.332;2024-02-15T01:00:38;9.63;;;3.85;;
25581;SDS011;13462;50.764;4.332;2024-02-15T01:03:04;14.32;;;4.25;;
25581;SDS011;13462;50.764;4.332;2024-02-15T01:05:29;8.00;;;3.58;;
25581;SDS011;13462;50.764;4.332;2024-02-15T01:07:55;10.50;;;3.80;;
25581;SDS011;13462;50.764;4.332;2024-02-15T01:10:21;8.75;;;3.80;;
25581;SDS011;13462;50.764;4.332;2024-02-15T01:12:49;11.40;;;3.67;;
25581;SDS011;13462;50.764;4.332;2024-02-15T01:15:14;11.25;;;3.45;;
25581;SDS011;13462;50.764;4.332;2024-02-15T01:17:44;12.13;;;3.30;;
25581;SDS011;13462;50.764;4.332;2024-02-15T01:20:11;9.27;;;3.65;;
25581;SDS011;13462;50.764;4.332;2024-02-15T01:22:36;8.20;;;3.08;;
25581;SDS011;13462;50.764;4.332;2024-02-15T01:25:02;10.25;;;3.40;;
25581;SDS011;13462;50.764;4.332;2024-02-15T01:27:28;14.50;;;3.55;;
25581;SDS011;13462;50.764;4.332;2024-02-15T01:29:58;6.82;;;3.83;;
25581;SDS011;13462;50.764;4.332;2024-02-15T01:32:24;13.00;;;3.85;;
25581;SDS011;13462;50.764;4.332;2024-02-15T01:34:52;15.05;;;3.53;;
25581;SDS011;13462;50.764;4.332;2024-02-15T01:37:20;8.80;;;3.28;;
25581;SDS011;13462;50.764;4.332;2024-02-15T01:39:46;5.28;;;2.95;;
25581;SDS011;13462;50.764;4.332;2024-02-15T01:42:11;10.60;;;3.03;;
25581;SDS011;13462;50.764;4.332;2024-02-15T01:44:39;8.23;;;3.35;;
25581;SDS011;13462;50.764;4.332;2024-02-15T01:47:09;7.18;;;3.95;;
25581;SDS011;13462;50.764;4.332;2024-02-15T01:49:35;8.90;;;3.15;;
25581;SDS011;13462;50.764;4.332;2024-02-15T01:52:01;7.85;;;2.97;;
25581;SDS011;13462;50.764;4.332;2024-02-15T01:54:30;6.32;;;2.92;;
25581;SDS011;13462;50.764;4.332;2024-02-15T01:56:57;14.05;;;3.80;;
25581;SDS011;13462;50.764;4.332;2024-02-15T01:59:23;9.00;;;3.20;;
25581;SDS011;13462;50.764;4.332;2024-02-15T02:01:50;8.15;;;2.78;;
25581;SDS011;13462;50.764;4.332;2024-02-15T02:04:16;6.82;;;2.75;;
25581;SDS011;13462;50.764;4.332;2024-02-15T02:06:41;4.85;;;2.55;;
25581;SDS011;13462;50.764;4.332;2024-02-15T02:09:10;12.45;;;2.83;;
25581;SDS011;13462;50.764;4.332;2024-02-15T02:11:37;9.43;;;2.60;;
25581;SDS011;13462;50.764;4.332;2024-02-15T02:14:04;7.13;;;3.03;;
25581;SDS011;13462;50.764;4.332;2024-02-15T02:16:30;9.40;;;2.78;;
25581;SDS011;13462;50.764;4.332;2024-02-15T02:19:04;8.00;;;2.58;;
25581;SDS011;13462;50.764;4.332;2024-02-15T02:21:33;7.25;;;2.58;;
25581;SDS011;13462;50.764;4.332;2024-02-15T02:24:00;9.57;;;2.65;;
25581;SDS011;13462;50.764;4.332;2024-02-15T02:26:33;6.10;;;2.70;;
25581;SDS011;13462;50.764;4.332;2024-02-15T02:28:59;13.55;;;3.38;;
25581;SDS011;13462;50.764;4.332;2024-02-15T02:31:29;5.93;;;2.50;;
25581;SDS011;13462;50.764;4.332;2024-02-15T02:33:59;16.30;;;4.55;;
25581;SDS011;13462;50.764;4.332;2024-02-15T02:36:25;8.60;;;2.95;;
25581;SDS011;13462;50.764;4.332;2024-02-15T02:38:51;5.90;;;2.65;;
25581;SDS011;13462;50.764;4.332;2024-02-15T02:41:18;10.00;;;3.05;;
25581;SDS011;13462;50.764;4.332;2024-02-15T02:43:48;5.65;;;3.20;;
25581;SDS011;13462;50.764;4.332;2024-02-15T02:46:14;10.55;;;3.08;;
25581;SDS011;13462;50.764;4.332;2024-02-15T02:48:40;5.32;;;2.60;;
25581;SDS011;13462;50.764;4.332;2024-02-15T02:51:07;10.02;;;2.85;;
25581;SDS011;13462;50.764;4.332;2024-02-15T02:53:33;8.00;;;3.70;;
25581;SDS011;13462;50.764;4.332;2024-02-15T02:55:58;10.52;;;3.30;;
25581;SDS011;13462;50.764;4.332;2024-02-15T02:58:24;6.80;;;2.70;;
25581;SDS011;13462;50.764;4.332;2024-02-15T03:00:50;11.25;;;4.15;;
25581;SDS011;13462;50.764;4.332;2024-02-15T03:03:16;7.00;;;2.47;;
25581;SDS011;13462;50.764;4.332;2024-02-15T03:05:44;7.45;;;3.47;;
25581;SDS011;13462;50.764;4.332;2024-02-15T03:08:11;8.77;;;3.10;;
25581;SDS011;13462;50.764;4.332;2024-02-15T03:10:37;6.13;;;2.65;;
25581;SDS011;13462;50.764;4.332;2024-02-15T03:13:04;8.48;;;3.00;;
25581;SDS011;13462;50.764;4.332;2024-02-15T03:15:30;8.77;;;3.00;;
25581;SDS011;13462;50.764;4.332;2024-02-15T03:17:58;8.60;;;2.95;;
25581;SDS011;13462;50.764;4.332;2024-02-15T03:20:24;9.93;;;2.40;;
25581;SDS011;13462;50.764;4.332;2024-02-15T03:22:56;9.35;;;3.03;;
25581;SDS011;13462;50.764;4.332;2024-02-15T03:25:23;7.03;;;3.33;;
25581;SDS011;13462;50.764;4.332;2024-02-15T03:27:50;8.13;;;3.05;;
25581;SDS011;13462;50.764;4.332;2024-02-15T03:30:20;9.13;;;2.70;;
25581;SDS011;13462;50.764;4.332;2024-02-15T03:32:51;7.35;;;3.33;;
25581;SDS011;13462;50.764;4.332;2024-02-15T03:35:21;9.73;;;3.05;;
25581;SDS011;13462;50.764;4.332;2024-02-15T03:37:50;6.55;;;3.20;;
25581;SDS011;13462;50.764;4.332;2024-02-15T03:40:20;9.32;;;3.58;;
25581;SDS011;13462;50.764;4.332;2024-02-15T03:42:47;11.48;;;2.75;;
25581;SDS011;13462;50.764;4.332;2024-02-15T03:45:13;5.18;;;3.00;;
25581;SDS011;13462;50.764;4.332;2024-02-15T03:47:38;7.20;;;3.47;;
25581;SDS011;13462;50.764;4.332;2024-02-15T03:50:04;4.15;;;3.10;;
25581;SDS011;13462;50.764;4.332;2024-02-15T03:52:33;6.35;;;2.65;;
25581;SDS011;13462;50.764;4.332;2024-02-15T03:54:59;9.25;;;3.03;;
25581;SDS011;13462;50.764;4.332;2024-02-15T03:57:24;8.02;;;3.50;;
25581;SDS011;13462;50.764;4.332;2024-02-15T03:59:50;6.15;;;2.55;;
25581;SDS011;13462;50.764;4.332;2024-02-15T04:02:17;5.15;;;2.38;;
25581;SDS011;13462;50.764;4.332;2024-02-15T04:04:43;9.25;;;2.70;;
25581;SDS011;13462;50.764;4.332;2024-02-15T04:07:12;5.60;;;2.20;;
25581;SDS011;13462;50.764;4.332;2024-02-15T04:09:39;9.13;;;3.15;;
25581;SDS011;13462;50.764;4.332;2024-02-15T04:12:05;7.28;;;2.63;;
25581;SDS011;13462;50.764;4.332;2024-02-15T04:14:32;10.52;;;2.78;;
25581;SDS011;13462;50.764;4.332;2024-02-15T04:16:59;9.88;;;3.55;;
25581;SDS011;13462;50.764;4.332;2024-02-15T04:19:25;3.78;;;2.78;;
25581;SDS011;13462;50.764;4.332;2024-02-15T04:21:50;11.13;;;3.05;;
25581;SDS011;13462;50.764;4.332;2024-02-15T04:24:16;5.43;;;2.28;;
25581;SDS011;13462;50.764;4.332;2024-02-15T04:26:42;6.03;;;2.53;;
25581;SDS011;13462;50.764;4.332;2024-02-15T04:29:07;5.90;;;2.20;;
25581;SDS011;13462;50.764;4.332;2024-02-15T04:31:37;5.93;;;3.78;;
25581;SDS011;13462;50.764;4.332;2024-02-15T04:34:04;6.60;;;2.55;;
25581;SDS011;13462;50.764;4.332;2024-02-15T04:36:30;5.28;;;1.98;;
25581;SDS011;13462;50.764;4.332;2024-02-15T04:38:59;5.93;;;2.33;;
25581;SDS011;13462;50.764;4.332;2024-02-15T04:41:27;7.90;;;2.50;;
25581;SDS011;13462;50.764;4.332;2024-02-15T04:43:54;4.90;;;2.88;;
25581;SDS011;13462;50.764;4.332;2024-02-15T04:46:19;6.82;;;2.72;;
25581;SDS011;13462;50.764;4.332;2024-02-15T04:48:48;4.90;;;2.55;;
25581;SDS011;13462;50.764;4.332;2024-02-15T04:51:14;8.82;;;2.42;;
25581;SDS011;13462;50.764;4.332;2024-02-15T04:53:41;6.63;;;2.55;;
25581;SDS011;13462;50.764;4.332;2024-02-15T04:56:07;5.00;;;2.50;;
25581;SDS011;13462;50.764;4.332;2024-02-15T04:58:39;7.32;;;2.63;;
25581;SDS011;13462;50.764;4.332;2024-02-15T05:01:12;3.40;;;2.22;;
25581;SDS011;13462;50.764;4.332;2024-02-15T05:03:41;5.50;;;1.90;;
25581;SDS011;13462;50.764;4.332;2024-02-15T05:06:07;5.25;;;2.88;;
25581;SDS011;13462;50.764;4.332;2024-02-15T05:08:33;7.60;;;2.13;;
25581;SDS011;13462;50.764;4.332;2024-02-15T05:11:01;2.80;;;2.10;;
25581;SDS011;13462;50.764;4.332;2024-02-15T05:13:29;3.97;;;2.13;;
25581;SDS011;13462;50.764;4.332;2024-02-15T05:15:55;6.00;;;2.50;;
25581;SDS011;13462;50.764;4.332;2024-02-15T05:18:21;6.20;;;2.33;;
25581;SDS011;13462;50.764;4.332;2024-02-15T05:20:46;9.07;;;3.40;;
25581;SDS011;13462;50.764;4.332;2024-02-15T05:23:12;4.30;;;2.35;;
25581;SDS011;13462;50.764;4.332;2024-02-15T05:25:37;5.68;;;2.30;;
25581;SDS011;13462;50.764;4.332;2024-02-15T05:28:03;5.80;;;1.88;;
25581;SDS011;13462;50.764;4.332;2024-02-15T05:30:31;5.53;;;2.30;;
25581;SDS011;13462;50.764;4.332;2024-02-15T05:32:57;7.25;;;2.40;;
25581;SDS011;13462;50.764;4.332;2024-02-15T05:35:23;4.03;;;1.92;;
25581;SDS011;13462;50.764;4.332;2024-02-15T05:37:49;5.15;;;1.98;;
25581;SDS011;13462;50.764;4.332;2024-02-15T05:40:17;4.43;;;2.00;;
25581;SDS011;13462;50.764;4.332;2024-02-15T05:42:44;4.88;;;2.10;;
25581;SDS011;13462;50.764;4.332;2024-02-15T05:47:49;2.90;;;1.70;;
25581;SDS011;13462;50.764;4.332;2024-02-15T05:50:16;6.65;;;2.22;;
25581;SDS011;13462;50.764;4.332;2024-02-15T05:52:45;3.75;;;1.85;;
25581;SDS011;13462;50.764;4.332;2024-02-15T05:55:11;4.05;;;1.85;;
25581;SDS011;13462;50.764;4.332;2024-02-15T05:57:39;8.93;;;2.10;;
25581;SDS011;13462;50.764;4.332;2024-02-15T06:00:05;2.88;;;1.73;;
25581;SDS011;13462;50.764;4.332;2024-02-15T06:02:31;4.80;;;1.90;;
25581;SDS011;13462;50.764;4.332;2024-02-15T06:04:57;5.90;;;2.00;;
25581;SDS011;13462;50.764;4.332;2024-02-15T06:07:27;4.30;;;1.75;;
25581;SDS011;13462;50.764;4.332;2024-02-15T06:09:53;8.50;;;2.67;;
25581;SDS011;13462;50.764;4.332;2024-02-15T06:12:19;2.45;;;1.52;;
25581;SDS011;13462;50.764;4.332;2024-02-15T06:14:45;6.20;;;2.67;;
25581;SDS011;13462;50.764;4.332;2024-02-15T06:17:11;9.27;;;1.73;;
25581;SDS011;13462;50.764;4.332;2024-02-15T06:19:37;2.80;;;1.70;;
25581;SDS011;13462;50.764;4.332;2024-02-15T06:22:03;7.35;;;2.00;;
25581;SDS011;13462;50.764;4.332;2024-02-15T06:24:29;5.10;;;1.80;;
25581;SDS011;13462;50.764;4.332;2024-02-15T06:26:55;7.05;;;1.90;;
25581;SDS011;13462;50.764;4.332;2024-02-15T06:29:25;5.32;;;1.95;;
25581;SDS011;13462;50.764;4.332;2024-02-15T06:32:09;5.13;;;1.67;;
25581;SDS011;13462;50.764;4.332;2024-02-15T06:34:54;7.63;;;2.17;;
25581;SDS011;13462;50.764;4.332;2024-02-15T06:37:38;6.50;;;1.80;;
25581;SDS011;13462;50.764;4.332;2024-02-15T06:40:23;2.38;;;1.73;;
25581;SDS011;13462;50.764;4.332;2024-02-15T06:42:49;4.00;;;2.15;;
25581;SDS011;13462;50.764;4.332;2024-02-15T06:45:15;7.03;;;2.00;;
25581;SDS011;13462;50.764;4.332;2024-02-15T06:47:48;3.97;;;2.10;;
25581;SDS011;13462;50.764;4.332;2024-02-15T06:50:13;2.90;;;1.80;;
25581;SDS011;13462;50.764;4.332;2024-02-15T06:52:40;7.88;;;2.00;;
25581;SDS011;13462;50.764;4.332;2024-02-15T06:55:09;8.00;;;1.88;;
25581;SDS011;13462;50.764;4.332;2024-02-15T06:57:39;6.90;;;2.00;;
25581;SDS011;13462;50.764;4.332;2024-02-15T07:00:06;5.60;;;2.15;;
25581;SDS011;13462;50.764;4.332;2024-02-15T07:02:40;6.55;;;1.67;;
25581;SDS011;13462;50.764;4.332;2024-02-15T07:05:06;5.97;;;1.90;;
25581;SDS011;13462;50.764;4.332;2024-02-15T07:07:32;6.03;;;2.45;;
25581;SDS011;13462;50.764;4.332;2024-02-15T07:09:59;5.90;;;2.00;;
25581;SDS011;13462;50.764;4.332;2024-02-15T07:12:27;8.68;;;2.00;;
25581;SDS011;13462;50.764;4.332;2024-02-15T07:14:53;4.22;;;2.28;;
25581;SDS011;13462;50.764;4.332;2024-02-15T07:17:19;6.35;;;2.03;;
25581;SDS011;13462;50.764;4.332;2024-02-15T07:19:45;3.53;;;2.00;;
25581;SDS011;13462;50.764;4.332;2024-02-15T07:22:17;7.97;;;2.38;;
25581;SDS011;13462;50.764;4.332;2024-02-15T07:24:43;5.00;;;1.80;;
25581;SDS011;13462;50.764;4.332;2024-02-15T07:27:08;6.13;;;2.00;;
25581;SDS011;13462;50.764;4.332;2024-02-15T07:29:35;7.80;;;2.00;;
25581;SDS011;13462;50.764;4.332;2024-02-15T07:32:02;3.03;;;2.10;;
25581;SDS011;13462;50.764;4.332;2024-02-15T07:34:29;5.13;;;2.25;;
25581;SDS011;13462;50.764;4.332;2024-02-15T07:36:55;8.00;;;2.05;;
25581;SDS011;13462;50.764;4.332;2024-02-15T07:39:23;6.18;;;1.58;;
25581;SDS011;13462;50.764;4.332;2024-02-15T07:41:50;4.75;;;1.70;;
25581;SDS011;13462;50.764;4.332;2024-02-15T07:44:16;3.30;;;1.98;;
25581;SDS011;13462;50.764;4.332;2024-02-15T07:46:45;5.00;;;1.52;;
25581;SDS011;13462;50.764;4.332;2024-02-15T07:49:12;5.70;;;1.88;;
25581;SDS011;13462;50.764;4.332;2024-02-15T07:51:37;3.30;;;1.90;;
25581;SDS011;13462;50.764;4.332;2024-02-15T07:54:03;5.95;;;2.70;;
25581;SDS011;13462;50.764;4.332;2024-02-15T07:56:29;5.88;;;1.85;;
25581;SDS011;13462;50.764;4.332;2024-02-15T07:58:55;6.85;;;2.42;;
25581;SDS011;13462;50.764;4.332;2024-02-15T08:01:21;3.47;;;1.77;;
25581;SDS011;13462;50.764;4.332;2024-02-15T08:03:47;4.00;;;2.03;;
25581;SDS011;13462;50.764;4.332;2024-02-15T08:06:14;3.95;;;2.03;;
25581;SDS011;13462;50.764;4.332;2024-02-15T08:08:44;4.32;;;1.98;;
25581;SDS011;13462;50.764;4.332;2024-02-15T08:11:12;4.43;;;2.60;;
25581;SDS011;13462;50.764;4.332;2024-02-15T08:13:44;6.32;;;2.17;;
25581;SDS011;13462;50.764;4.332;2024-02-15T08:18:41;7.82;;;2.33;;
25581;SDS011;13462;50.764;4.332;2024-02-15T08:21:10;5.38;;;2.22;;
25581;SDS011;13462;50.764;4.332;2024-02-15T08:23:37;5.57;;;3.17;;
25581;SDS011;13462;50.764;4.332;2024-02-15T08:26:02;4.13;;;2.13;;
25581;SDS011;13462;50.764;4.332;2024-02-15T08:28:28;6.93;;;2.10;;
25581;SDS011;13462;50.764;4.332;2024-02-15T08:30:54;3.78;;;2.13;;
25581;SDS011;13462;50.764;4.332;2024-02-15T08:33:21;3.80;;;2.35;;
25581;SDS011;13462;50.764;4.332;2024-02-15T08:35:46;6.18;;;2.17;;
25581;SDS011;13462;50.764;4.332;2024-02-15T08:38:12;3.00;;;1.75;;
25581;SDS011;13462;50.764;4.332;2024-02-15T08:40:38;5.07;;;2.47;;
25581;SDS011;13462;50.764;4.332;2024-02-15T08:43:03;5.50;;;1.92;;
25581;SDS011;13462;50.764;4.332;2024-02-15T08:45:29;6.25;;;2.10;;
25581;SDS011;13462;50.764;4.332;2024-02-15T08:47:55;3.38;;;1.60;;
25581;SDS011;13462;50.764;4.332;2024-02-15T08:50:20;4.22;;;2.13;;
25581;SDS011;13462;50.764;4.332;2024-02-15T08:52:48;4.07;;;1.95;;
25581;SDS011;13462;50.764;4.332;2024-02-15T08:55:14;7.28;;;1.95;;
25581;SDS011;13462;50.764;4.332;2024-02-15T08:57:40;3.58;;;2.15;;
25581;SDS011;13462;50.764;4.332;2024-02-15T09:00:06;7.68;;;2.22;;
25581;SDS011;13462;50.764;4.332;2024-02-15T09:02:39;6.57;;;2.42;;
25581;SDS011;13462;50.764;4.332;2024-02-15T09:05:05;3.30;;;1.90;;
25581;SDS011;13462;50.764;4.332;2024-02-15T09:07:31;3.28;;;1.77;;
25581;SDS011;13462;50.764;4.332;2024-02-15T09:09:57;3.47;;;2.15;;
25581;SDS011;13462;50.764;4.332;2024-02-15T09:12:23;3.65;;;2.40;;
25581;SDS011;13462;50.764;4.332;2024-02-15T09:14:49;5.00;;;2.10;;
25581;SDS011;13462;50.764;4.332;2024-02-15T09:17:14;4.07;;;1.95;;
25581;SDS011;13462;50.764;4.332;2024-02-15T09:19:40;2.50;;;1.80;;
25581;SDS011;13462;50.764;4.332;2024-02-15T09:22:06;4.25;;;1.90;;
25581;SDS011;13462;50.764;4.332;2024-02-15T09:24:32;5.65;;;2.03;;
25581;SDS011;13462;50.764;4.332;2024-02-15T09:26:59;2.63;;;1.85;;
25581;SDS011;13462;50.764;4.332;2024-02-15T09:29:26;4.93;;;1.75;;
25581;SDS011;13462;50.764;4.332;2024-02-15T09:31:54;3.90;;;1.77;;
25581;SDS011;13462;50.764;4.332;2024-02-15T09:34:21;4.25;;;1.70;;
25581;SDS011;13462;50.764;4.332;2024-02-15T09:36:46;6.22;;;2.42;;
25581;SDS011;13462;50.764;4.332;2024-02-15T09:39:12;4.43;;;1.70;;
25581;SDS011;13462;50.764;4.332;2024-02-15T09:41:39;3.13;;;1.60;;
25581;SDS011;13462;50.764;4.332;2024-02-15T09:44:05;3.13;;;2.00;;
25581;SDS011;13462;50.764;4.332;2024-02-15T09:46:33;4.13;;;2.05;;
25581;SDS011;13462;50.764;4.332;2024-02-15T09:49:01;3.47;;;1.90;;
25581;SDS011;13462;50.764;4.332;2024-02-15T09:51:28;4.07;;;2.10;;
25581;SDS011;13462;50.764;4.332;2024-02-15T09:53:58;5.15;;;1.55;;
25581;SDS011;13462;50.764;4.332;2024-02-15T09:56:26;2.72;;;1.63;;
25581;SDS011;13462;50.764;4.332;2024-02-15T09:58:53;3.45;;;1.77;;
25581;SDS011;13462;50.764;4.332;2024-02-15T10:01:20;5.03;;;1.60;;
25581;SDS011;13462;50.764;4.332;2024-02-15T10:03:49;3.88;;;1.58;;
25581;SDS011;13462;50.764;4.332;2024-02-15T10:06:17;3.17;;;1.77;;
25581;SDS011;13462;50.764;4.332;2024-02-15T10:08:44;4.68;;;1.73;;
25581;SDS011;13462;50.764;4.332;2024-02-15T10:11:12;3.25;;;1.63;;
25581;SDS011;13462;50.764;4.332;2024-02-15T10:13:37;3.10;;;1.60;;
25581;SDS011;13462;50.764;4.332;2024-02-15T10:16:17;4.18;;;1.77;;
25581;SDS011;13462;50.764;4.332;2024-02-15T10:18:46;2.65;;;1.58;;
25581;SDS011;13462;50.764;4.332;2024-02-15T10:21:27;3.67;;;1.95;;
25581;SDS011;13462;50.764;4.332;2024-02-15T10:24:04;2.67;;;1.70;;
25581;SDS011;13462;50.764;4.332;2024-02-15T10:26:31;3.25;;;1.63;;
25581;SDS011;13462;50.764;4.332;2024-02-15T10:29:07;4.43;;;2.08;;
25581;SDS011;13462;50.764;4.332;2024-02-15T10:31:35;5.18;;;2.13;;
25581;SDS011;13462;50.764;4.332;2024-02-15T10:34:02;4.55;;;1.98;;
25581;SDS011;13462;50.764;4.332;2024-02-15T10:36:29;5.50;;;2.00;;
25581;SDS011;13462;50.764;4.332;2024-02-15T10:39:14;5.05;;;2.08;;
25581;SDS011;13462;50.764;4.332;2024-02-15T10:41:49;3.30;;;1.65;;
25581;SDS011;13462;50.764;4.332;2024-02-15T10:44:20;5.43;;;1.80;;
25581;SDS011;13462;50.764;4.332;2024-02-15T10:46:51;3.63;;;1.98;;
25581;SDS011;13462;50.764;4.332;2024-02-15T10:49:21;2.43;;;1.40;;
25581;SDS011;13462;50.764;4.332;2024-02-15T10:51:52;3.97;;;1.55;;
25581;SDS011;13462;50.764;4.332;2024-02-15T10:54:31;3.30;;;1.50;;
25581;SDS011;13462;50.764;4.332;2024-02-15T10:57:04;3.75;;;1.52;;
25581;SDS011;13462;50.764;4.332;2024-02-15T10:59:37;2.90;;;1.52;;
25581;SDS011;13462;50.764;4.332;2024-02-15T11:02:10;2.95;;;1.50;;
25581;SDS011;13462;50.764;4.332;2024-02-15T11:05:06;3.03;;;1.52;;
25581;SDS011;13462;50.764;4.332;2024-02-15T11:07:36;3.05;;;1.65;;
25581;SDS011;13462;50.764;4.332;2024-02-15T11:10:05;4.75;;;1.83;;
25581;SDS011;13462;50.764;4.332;2024-02-15T11:12:33;6.28;;;2.30;;
25581;SDS011;13462;50.764;4.332;2024-02-15T11:14:59;2.38;;;1.80;;
25581;SDS011;13462;50.764;4.332;2024-02-15T11:20:08;3.97;;;1.52;;
25581;SDS011;13462;50.764;4.332;2024-02-15T11:22:36;2.30;;;1.55;;
25581;SDS011;13462;50.764;4.332;2024-02-15T11:25:02;2.58;;;1.77;;
25581;SDS011;13462;50.764;4.332;2024-02-15T11:30:02;3.70;;;1.60;;
25581;SDS011;13462;50.764;4.332;2024-02-15T11:32:34;3.45;;;1.80;;
25581;SDS011;13462;50.764;4.332;2024-02-15T11:40:16;3.65;;;1.40;;
25581;SDS011;13462;50.764;4.332;2024-02-15T11:43:02;3.97;;;1.70;;
25581;SDS011;13462;50.764;4.332;2024-02-15T11:45:29;4.70;;;1.60;;
25581;SDS011;13462;50.764;4.332;2024-02-15T11:48:02;5.00;;;2.08;;
25581;SDS011;13462;50.764;4.332;2024-02-15T11:50:28;3.25;;;1.60;;
25581;SDS011;13462;50.764;4.332;2024-02-15T11:53:06;2.80;;;1.75;;
25581;SDS011;13462;50.764;4.332;2024-02-15T11:55:36;4.10;;;1.90;;
25581;SDS011;13462;50.764;4.332;2024-02-15T11:58:06;4.40;;;1.60;;
25581;SDS011;13462;50.764;4.332;2024-02-15T12:00:32;2.47;;;1.70;;
25581;SDS011;13462;50.764;4.332;2024-02-15T12:03:17;2.80;;;1.50;;
25581;SDS011;13462;50.764;4.332;2024-02-15T12:06:02;6.38;;;1.75;;
25581;SDS011;13462;50.764;4.332;2024-02-15T12:08:47;3.08;;;2.10;;
25581;SDS011;13462;50.764;4.332;2024-02-15T12:11:32;3.10;;;1.90;;
25581;SDS011;13462;50.764;4.332;2024-02-15T12:14:37;5.43;;;2.45;;
25581;SDS011;13462;50.764;4.332;2024-02-15T12:17:23;6.60;;;2.75;;
25581;SDS011;13462;50.764;4.332;2024-02-15T12:20:07;7.05;;;2.58;;
25581;SDS011;13462;50.764;4.332;2024-02-15T12:22:43;7.68;;;2.40;;
25581;SDS011;13462;50.764;4.332;2024-02-15T12:25:14;6.05;;;2.78;;
25581;SDS011;13462;50.764;4.332;2024-02-15T12:27:41;8.10;;;3.35;;
25581;SDS011;13462;50.764;4.332;2024-02-15T12:30:15;8.95;;;3.42;;
25581;SDS011;13462;50.764;4.332;2024-02-15T12:32:45;7.28;;;3.22;;
25581;SDS011;13462;50.764;4.332;2024-02-15T12:35:12;6.43;;;2.28;;
25581;SDS011;13462;50.764;4.332;2024-02-15T12:37:44;5.53;;;2.80;;
25581;SDS011;13462;50.764;4.332;2024-02-15T12:40:14;4.57;;;2.25;;
25581;SDS011;13462;50.764;4.332;2024-02-15T12:42:43;5.25;;;2.28;;
25581;SDS011;13462;50.764;4.332;2024-02-15T12:45:19;6.70;;;2.20;;
25581;SDS011;13462;50.764;4.332;2024-02-15T12:47:55;4.80;;;2.25;;
25581;SDS011;13462;50.764;4.332;2024-02-15T12:50:23;3.65;;;1.52;;
25581;SDS011;13462;50.764;4.332;2024-02-15T12:52:53;5.55;;;2.33;;
25581;SDS011;13462;50.764;4.332;2024-02-15T12:55:20;7.72;;;2.33;;
25581;SDS011;13462;50.764;4.332;2024-02-15T12:57:49;3.28;;;1.42;;
25581;SDS011;13462;50.764;4.332;2024-02-15T13:00:22;4.05;;;1.95;;
25581;SDS011;13462;50.764;4.332;2024-02-15T13:02:53;2.95;;;1.70;;
25581;SDS011;13462;50.764;4.332;2024-02-15T13:05:20;3.13;;;1.48;;
25581;SDS011;13462;50.764;4.332;2024-02-15T13:07:47;4.22;;;2.03;;
25581;SDS011;13462;50.764;4.332;2024-02-15T13:10:17;2.10;;;1.60;;
25581;SDS011;13462;50.764;4.332;2024-02-15T13:12:43;5.45;;;1.80;;
25581;SDS011;13462;50.764;4.332;2024-02-15T13:15:13;3.65;;;1.60;;
25581;SDS011;13462;50.764;4.332;2024-02-15T13:17:40;2.50;;;1.40;;
25581;SDS011;13462;50.764;4.332;2024-02-15T13:20:13;4.28;;;1.38;;
25581;SDS011;13462;50.764;4.332;2024-02-15T13:22:40;2.03;;;1.67;;
25581;SDS011;13462;50.764;4.332;2024-02-15T13:25:08;3.33;;;1.65;;
25581;SDS011;13462;50.764;4.332;2024-02-15T13:27:37;1.95;;;1.40;;
25581;SDS011;13462;50.764;4.332;2024-02-15T13:30:04;1.33;;;1.23;;
25581;SDS011;13462;50.764;4.332;2024-02-15T13:32:37;2.40;;;1.80;;
25581;SDS011;13462;50.764;4.332;2024-02-15T13:35:04;4.90;;;1.85;;
25581;SDS011;13462;50.764;4.332;2024-02-15T13:37:38;2.13;;;1.30;;
25581;SDS011;13462;50.764;4.332;2024-02-15T13:40:09;3.90;;;1.48;;
25581;SDS011;13462;50.764;4.332;2024-02-15T13:42:40;4.03;;;1.85;;
25581;SDS011;13462;50.764;4.332;2024-02-15T13:45:14;2.10;;;1.40;;
25581;SDS011;13462;50.764;4.332;2024-02-15T13:47:43;2.22;;;1.70;;
25581;SDS011;13462;50.764;4.332;2024-02-15T13:50:11;3.22;;;1.42;;
25581;SDS011;13462;50.764;4.332;2024-02-15T13:52:39;2.30;;;1.52;;
25581;SDS011;13462;50.764;4.332;2024-02-15T13:55:08;3.03;;;1.80;;
25581;SDS011;13462;50.764;4.332;2024-02-15T13:57:39;2.50;;;1.55;;
25581;SDS011;13462;50.764;4.332;2024-02-15T14:00:09;4.78;;;2.00;;
25581;SDS011;13462;50.764;4.332;2024-02-15T14:02:58;2.63;;;1.65;;
25581;SDS011;13462;50.764;4.332;2024-02-15T14:05:28;2.42;;;1.40;;
25581;SDS011;13462;50.764;4.332;2024-02-15T14:07:55;3.17;;;1.60;;
25581;SDS011;13462;50.764;4.332;2024-02-15T14:10:22;1.45;;;1.20;;
25581;SDS011;13462;50.764;4.332;2024-02-15T14:12:49;2.03;;;1.55;;
25581;SDS011;13462;50.764;4.332;2024-02-15T14:15:26;3.03;;;1.33;;
25581;SDS011;13462;50.764;4.332;2024-02-15T14:17:52;2.85;;;1.50;;
25581;SDS011;13462;50.764;4.332;2024-02-15T14:20:18;2.90;;;1.40;;
25581;SDS011;13462;50.764;4.332;2024-02-15T14:22:46;1.75;;;1.27;;
25581;SDS011;13462;50.764;4.332;2024-02-15T14:25:25;4.38;;;1.92;;
25581;SDS011;13462;50.764;4.332;2024-02-15T14:27:51;2.65;;;1.23;;
25581;SDS011;13462;50.764;4.332;2024-02-15T14:30:19;2.47;;;1.25;;
25581;SDS011;13462;50.764;4.332;2024-02-15T14:33:03;1.55;;;1.23;;
25581;SDS011;13462;50.764;4.332;2024-02-15T14:35:30;2.95;;;1.42;;
25581;SDS011;13462;50.764;4.332;2024-02-15T14:37:57;2.03;;;1.40;;
25581;SDS011;13462;50.764;4.332;2024-02-15T14:40:23;2.15;;;0.98;;
25581;SDS011;13462;50.764;4.332;2024-02-15T14:42:48;0.85;;;0.85;;
25581;SDS011;13462;50.764;4.332;2024-02-15T14:45:14;1.85;;;1.30;;
25581;SDS011;13462;50.764;4.332;2024-02-15T14:47:40;2.63;;;1.30;;
25581;SDS011;13462;50.764;4.332;2024-02-15T14:50:07;2.63;;;1.38;;
25581;SDS011;13462;50.764;4.332;2024-02-15T14:52:36;1.65;;;1.23;;
25581;SDS011;13462;50.764;4.332;2024-02-15T14:55:05;1.50;;;1.30;;
25581;SDS011;13462;50.764;4.332;2024-02-15T14:57:32;2.13;;;1.35;;
25581;SDS011;13462;50.764;4.332;2024-02-15T14:59:59;4.65;;;1.08;;
25581;SDS011;13462;50.764;4.332;2024-02-15T15:02:25;1.83;;;1.10;;
25581;SDS011;13462;50.764;4.332;2024-02-15T15:04:51;3.50;;;1.42;;
25581;SDS011;13462;50.764;4.332;2024-02-15T15:07:42;2.00;;;1.40;;
25581;SDS011;13462;50.764;4.332;2024-02-15T15:10:28;3.40;;;1.35;;